Bellona, New York
Current Conditions -  °F | °C
As of 1:53 PM on Monday 20 Oct 2014 (Local Time) from KPEO Reporting Station
Overcast Overcast  
Wind Chill: 50°   Ceiling: 7000
Heat Index: 50°   Visibility: 10mi
Dew Point: 37°   Wind: 10mph
Humidity: 61%   Direction: 190°S
Pressure: 29.88"   Gusts: NA
Location:  42.76°N, 77.01°W
Report Text: KPEO 201753Z AUTO 19009KT 10SM BKN070 OVC090 10/03 A2988 RMK AO2 SLP124 60000 T01000028 10100 20050 58026
Loading
Personal Weather Stations






























Interactive Weather Map
Tropical Storm Tracking
New forecast layout! Learn more

10-Day Weather Forecast

Advertisements
Track Severe Weather on mobile